sensor_id;sensor_type;location;lat;lon;timestamp;temperature;humidity
40374;DHT22;26079;45.958;12.492;2023-03-19T00:02:12;5.30;97.90
40374;DHT22;26079;45.958;12.492;2023-03-19T00:04:38;5.20;97.40
40374;DHT22;26079;45.958;12.492;2023-03-19T00:07:04;5.20;97.60
40374;DHT22;26079;45.958;12.492;2023-03-19T00:09:30;5.10;98.20
40374;DHT22;26079;45.958;12.492;2023-03-19T00:11:56;5.10;98.40
40374;DHT22;26079;45.958;12.492;2023-03-19T00:14:22;5.10;98.80
40374;DHT22;26079;45.958;12.492;2023-03-19T00:16:47;5.00;99.10
40374;DHT22;26079;45.958;12.492;2023-03-19T00:19:13;5.10;99.20
40374;DHT22;26079;45.958;12.492;2023-03-19T00:21:40;5.00;99.00
40374;DHT22;26079;45.958;12.492;2023-03-19T00:24:06;5.10;99.20
40374;DHT22;26079;45.958;12.492;2023-03-19T00:26:33;5.10;99.40
40374;DHT22;26079;45.958;12.492;2023-03-19T00:28:59;5.00;98.40
40374;DHT22;26079;45.958;12.492;2023-03-19T00:31:26;4.90;98.20
40374;DHT22;26079;45.958;12.492;2023-03-19T00:33:53;4.90;99.00
40374;DHT22;26079;45.958;12.492;2023-03-19T00:36:19;4.90;99.20
40374;DHT22;26079;45.958;12.492;2023-03-19T00:38:46;4.90;98.70
40374;DHT22;26079;45.958;12.492;2023-03-19T00:41:12;4.90;98.90
40374;DHT22;26079;45.958;12.492;2023-03-19T00:43:38;4.90;98.90
40374;DHT22;26079;45.958;12.492;2023-03-19T00:46:04;4.90;98.80
40374;DHT22;26079;45.958;12.492;2023-03-19T00:48:30;5.00;99.30
40374;DHT22;26079;45.958;12.492;2023-03-19T00:51:01;5.00;99.80
40374;DHT22;26079;45.958;12.492;2023-03-19T00:53:27;5.20;99.60
40374;DHT22;26079;45.958;12.492;2023-03-19T00:55:53;5.20;99.50
40374;DHT22;26079;45.958;12.492;2023-03-19T00:58:19;5.30;99.30
40374;DHT22;26079;45.958;12.492;2023-03-19T01:00:44;5.30;99.20
40374;DHT22;26079;45.958;12.492;2023-03-19T01:03:10;5.40;99.30
40374;DHT22;26079;45.958;12.492;2023-03-19T01:05:36;5.40;99.10
40374;DHT22;26079;45.958;12.492;2023-03-19T01:08:01;5.30;97.50
40374;DHT22;26079;45.958;12.492;2023-03-19T01:10:27;5.10;97.40
40374;DHT22;26079;45.958;12.492;2023-03-19T01:12:53;5.00;98.50
40374;DHT22;26079;45.958;12.492;2023-03-19T01:15:19;4.90;99.10
40374;DHT22;26079;45.958;12.492;2023-03-19T01:17:45;4.80;99.60
40374;DHT22;26079;45.958;12.492;2023-03-19T01:20:11;4.70;99.60
40374;DHT22;26079;45.958;12.492;2023-03-19T01:22:43;4.60;99.90
40374;DHT22;26079;45.958;12.492;2023-03-19T01:25:12;4.60;99.90
40374;DHT22;26079;45.958;12.492;2023-03-19T01:27:38;4.60;99.90
40374;DHT22;26079;45.958;12.492;2023-03-19T01:30:05;4.60;99.90
40374;DHT22;26079;45.958;12.492;2023-03-19T01:32:32;4.60;99.90
40374;DHT22;26079;45.958;12.492;2023-03-19T01:34:58;4.50;99.90
40374;DHT22;26079;45.958;12.492;2023-03-19T01:37:23;4.50;99.90
40374;DHT22;26079;45.958;12.492;2023-03-19T01:39:49;4.50;99.90
40374;DHT22;26079;45.958;12.492;2023-03-19T01:42:15;4.50;99.90
40374;DHT22;26079;45.958;12.492;2023-03-19T01:44:41;4.50;99.90
40374;DHT22;26079;45.958;12.492;2023-03-19T01:47:18;4.50;99.90
40374;DHT22;26079;45.958;12.492;2023-03-19T01:49:52;4.50;99.90
40374;DHT22;26079;45.958;12.492;2023-03-19T01:52:20;4.50;99.90
40374;DHT22;26079;45.958;12.492;2023-03-19T01:54:46;4.50;99.90
40374;DHT22;26079;45.958;12.492;2023-03-19T01:57:13;4.50;99.90
40374;DHT22;26079;45.958;12.492;2023-03-19T01:59:43;4.40;99.90
40374;DHT22;26079;45.958;12.492;2023-03-19T02:04:55;4.40;99.90
40374;DHT22;26079;45.958;12.492;2023-03-19T02:07:22;4.40;99.90
40374;DHT22;26079;45.958;12.492;2023-03-19T02:09:49;4.30;99.90
40374;DHT22;26079;45.958;12.492;2023-03-19T02:12:15;4.30;99.90
40374;DHT22;26079;45.958;12.492;2023-03-19T02:14:41;4.30;99.90
40374;DHT22;26079;45.958;12.492;2023-03-19T02:17:07;4.20;99.90
40374;DHT22;26079;45.958;12.492;2023-03-19T02:22:06;4.20;99.90
40374;DHT22;26079;45.958;12.492;2023-03-19T02:24:36;4.20;99.90
40374;DHT22;26079;45.958;12.492;2023-03-19T02:27:05;4.30;99.90
40374;DHT22;26079;45.958;12.492;2023-03-19T02:29:32;4.30;99.90
40374;DHT22;26079;45.958;12.492;2023-03-19T02:31:58;4.20;99.90
40374;DHT22;26079;45.958;12.492;2023-03-19T02:36:56;4.30;99.90
40374;DHT22;26079;45.958;12.492;2023-03-19T02:40:00;4.30;99.90
40374;DHT22;26079;45.958;12.492;2023-03-19T02:42:29;4.30;99.90
40374;DHT22;26079;45.958;12.492;2023-03-19T02:44:56;4.30;99.90
40374;DHT22;26079;45.958;12.492;2023-03-19T02:47:23;4.30;99.90
40374;DHT22;26079;45.958;12.492;2023-03-19T02:49:48;4.30;99.90
40374;DHT22;26079;45.958;12.492;2023-03-19T02:52:14;4.20;99.90
40374;DHT22;26079;45.958;12.492;2023-03-19T02:54:41;4.20;99.90
40374;DHT22;26079;45.958;12.492;2023-03-19T02:57:06;4.10;99.90
40374;DHT22;26079;45.958;12.492;2023-03-19T02:59:32;4.10;99.90
40374;DHT22;26079;45.958;12.492;2023-03-19T03:01:58;4.10;99.90
40374;DHT22;26079;45.958;12.492;2023-03-19T03:04:24;4.10;99.90
40374;DHT22;26079;45.958;12.492;2023-03-19T03:06:50;4.10;99.90
40374;DHT22;26079;45.958;12.492;2023-03-19T03:09:16;4.00;99.90
40374;DHT22;26079;45.958;12.492;2023-03-19T03:11:42;4.00;99.90
40374;DHT22;26079;45.958;12.492;2023-03-19T03:14:09;4.00;99.90
40374;DHT22;26079;45.958;12.492;2023-03-19T03:16:34;4.00;99.90
40374;DHT22;26079;45.958;12.492;2023-03-19T03:19:00;4.00;99.90
40374;DHT22;26079;45.958;12.492;2023-03-19T03:21:27;4.00;99.90
40374;DHT22;26079;45.958;12.492;2023-03-19T03:23:52;4.00;99.90
40374;DHT22;26079;45.958;12.492;2023-03-19T03:26:18;4.00;99.90
40374;DHT22;26079;45.958;12.492;2023-03-19T03:28:44;4.00;99.90
40374;DHT22;26079;45.958;12.492;2023-03-19T03:31:10;4.00;99.90
40374;DHT22;26079;45.958;12.492;2023-03-19T03:33:36;4.00;99.90
40374;DHT22;26079;45.958;12.492;2023-03-19T03:36:02;4.00;99.90
40374;DHT22;26079;45.958;12.492;2023-03-19T03:38:28;4.00;99.90
40374;DHT22;26079;45.958;12.492;2023-03-19T03:40:54;4.00;99.90
40374;DHT22;26079;45.958;12.492;2023-03-19T03:43:20;4.10;99.90
40374;DHT22;26079;45.958;12.492;2023-03-19T03:45:47;4.10;99.90
40374;DHT22;26079;45.958;12.492;2023-03-19T03:48:13;4.10;99.90
40374;DHT22;26079;45.958;12.492;2023-03-19T03:50:39;4.10;99.90
40374;DHT22;26079;45.958;12.492;2023-03-19T03:53:05;4.10;99.90
40374;DHT22;26079;45.958;12.492;2023-03-19T03:55:31;4.10;99.90
40374;DHT22;26079;45.958;12.492;2023-03-19T03:57:57;4.10;99.90
40374;DHT22;26079;45.958;12.492;2023-03-19T04:00:23;4.20;99.90
40374;DHT22;26079;45.958;12.492;2023-03-19T04:02:50;4.10;99.90
40374;DHT22;26079;45.958;12.492;2023-03-19T04:05:16;4.10;99.90
40374;DHT22;26079;45.958;12.492;2023-03-19T04:07:42;4.10;99.90
40374;DHT22;26079;45.958;12.492;2023-03-19T04:10:09;4.00;99.90
40374;DHT22;26079;45.958;12.492;2023-03-19T04:12:36;4.00;99.90
40374;DHT22;26079;45.958;12.492;2023-03-19T04:15:03;4.00;99.90
40374;DHT22;26079;45.958;12.492;2023-03-19T04:17:29;4.10;99.90
40374;DHT22;26079;45.958;12.492;2023-03-19T04:19:55;4.10;99.90
40374;DHT22;26079;45.958;12.492;2023-03-19T04:22:21;4.20;99.90
40374;DHT22;26079;45.958;12.492;2023-03-19T04:24:47;4.20;99.90
40374;DHT22;26079;45.958;12.492;2023-03-19T04:27:13;4.00;99.40
40374;DHT22;26079;45.958;12.492;2023-03-19T04:29:41;3.80;99.90
40374;DHT22;26079;45.958;12.492;2023-03-19T04:32:06;3.80;99.90
40374;DHT22;26079;45.958;12.492;2023-03-19T04:34:32;3.80;99.90
40374;DHT22;26079;45.958;12.492;2023-03-19T04:36:58;3.80;99.90
40374;DHT22;26079;45.958;12.492;2023-03-19T04:39:24;3.90;99.90
40374;DHT22;26079;45.958;12.492;2023-03-19T04:41:50;3.90;99.90
40374;DHT22;26079;45.958;12.492;2023-03-19T04:44:16;4.00;99.90
40374;DHT22;26079;45.958;12.492;2023-03-19T04:46:42;4.10;99.90
40374;DHT22;26079;45.958;12.492;2023-03-19T04:49:09;4.20;99.90
40374;DHT22;26079;45.958;12.492;2023-03-19T04:51:35;4.20;99.90
40374;DHT22;26079;45.958;12.492;2023-03-19T04:54:01;4.30;99.90
40374;DHT22;26079;45.958;12.492;2023-03-19T04:56:27;4.40;99.90
40374;DHT22;26079;45.958;12.492;2023-03-19T04:58:53;4.50;99.90
40374;DHT22;26079;45.958;12.492;2023-03-19T05:01:18;4.50;99.90
40374;DHT22;26079;45.958;12.492;2023-03-19T05:03:45;4.50;99.90
40374;DHT22;26079;45.958;12.492;2023-03-19T05:06:11;4.60;99.90
40374;DHT22;26079;45.958;12.492;2023-03-19T05:08:36;4.60;99.90
40374;DHT22;26079;45.958;12.492;2023-03-19T05:11:02;4.70;99.90
40374;DHT22;26079;45.958;12.492;2023-03-19T05:13:28;4.80;99.40
40374;DHT22;26079;45.958;12.492;2023-03-19T05:15:54;4.70;98.60
40374;DHT22;26079;45.958;12.492;2023-03-19T05:18:21;4.70;98.90
40374;DHT22;26079;45.958;12.492;2023-03-19T05:20:46;4.70;99.10
40374;DHT22;26079;45.958;12.492;2023-03-19T05:23:12;4.70;99.40
40374;DHT22;26079;45.958;12.492;2023-03-19T05:25:38;4.80;98.70
40374;DHT22;26079;45.958;12.492;2023-03-19T05:28:06;4.80;98.10
40374;DHT22;26079;45.958;12.492;2023-03-19T05:30:33;4.70;98.20
40374;DHT22;26079;45.958;12.492;2023-03-19T05:33:00;4.70;98.20
40374;DHT22;26079;45.958;12.492;2023-03-19T05:35:27;4.60;98.50
40374;DHT22;26079;45.958;12.492;2023-03-19T05:37:54;4.60;98.90
40374;DHT22;26079;45.958;12.492;2023-03-19T05:40:20;4.60;99.30
40374;DHT22;26079;45.958;12.492;2023-03-19T05:42:48;4.60;99.70
40374;DHT22;26079;45.958;12.492;2023-03-19T05:45:14;4.70;99.50
40374;DHT22;26079;45.958;12.492;2023-03-19T05:47:42;4.80;99.70
40374;DHT22;26079;45.958;12.492;2023-03-19T05:50:08;4.80;99.70
40374;DHT22;26079;45.958;12.492;2023-03-19T05:52:34;4.90;99.50
40374;DHT22;26079;45.958;12.492;2023-03-19T05:55:00;4.90;99.60
40374;DHT22;26079;45.958;12.492;2023-03-19T05:57:26;5.00;99.10
40374;DHT22;26079;45.958;12.492;2023-03-19T05:59:52;5.00;99.10
40374;DHT22;26079;45.958;12.492;2023-03-19T06:02:18;5.10;99.20
40374;DHT22;26079;45.958;12.492;2023-03-19T06:04:43;5.20;99.00
40374;DHT22;26079;45.958;12.492;2023-03-19T06:07:09;5.30;99.10
40374;DHT22;26079;45.958;12.492;2023-03-19T06:09:35;5.40;98.80
40374;DHT22;26079;45.958;12.492;2023-03-19T06:12:01;5.40;98.20
40374;DHT22;26079;45.958;12.492;2023-03-19T06:14:26;5.50;98.20
40374;DHT22;26079;45.958;12.492;2023-03-19T06:16:52;5.60;98.30
40374;DHT22;26079;45.958;12.492;2023-03-19T06:19:18;5.70;98.10
40374;DHT22;26079;45.958;12.492;2023-03-19T06:21:43;5.80;98.20
40374;DHT22;26079;45.958;12.492;2023-03-19T06:24:09;5.90;98.60
40374;DHT22;26079;45.958;12.492;2023-03-19T06:26:35;6.00;98.30
40374;DHT22;26079;45.958;12.492;2023-03-19T06:29:01;6.10;97.50
40374;DHT22;26079;45.958;12.492;2023-03-19T06:31:27;6.20;97.60
40374;DHT22;26079;45.958;12.492;2023-03-19T06:33:53;6.30;97.70
40374;DHT22;26079;45.958;12.492;2023-03-19T06:36:19;6.40;97.30
40374;DHT22;26079;45.958;12.492;2023-03-19T06:38:45;6.50;97.20
40374;DHT22;26079;45.958;12.492;2023-03-19T06:41:11;6.60;97.00
40374;DHT22;26079;45.958;12.492;2023-03-19T06:43:37;6.70;96.80
40374;DHT22;26079;45.958;12.492;2023-03-19T06:46:05;6.70;95.40
40374;DHT22;26079;45.958;12.492;2023-03-19T06:48:32;6.70;95.80
40374;DHT22;26079;45.958;12.492;2023-03-19T06:50:58;6.70;95.50
40374;DHT22;26079;45.958;12.492;2023-03-19T06:53:24;6.80;96.00
40374;DHT22;26079;45.958;12.492;2023-03-19T06:55:50;6.90;96.00
40374;DHT22;26079;45.958;12.492;2023-03-19T06:58:16;7.00;95.30
40374;DHT22;26079;45.958;12.492;2023-03-19T07:00:42;7.10;95.00
40374;DHT22;26079;45.958;12.492;2023-03-19T07:03:08;7.20;95.00
40374;DHT22;26079;45.958;12.492;2023-03-19T07:05:34;7.40;94.70
40374;DHT22;26079;45.958;12.492;2023-03-19T07:08:00;7.50;94.70
40374;DHT22;26079;45.958;12.492;2023-03-19T07:10:26;7.70;94.40
40374;DHT22;26079;45.958;12.492;2023-03-19T07:12:52;7.90;92.50
40374;DHT22;26079;45.958;12.492;2023-03-19T07:15:17;8.00;92.80
40374;DHT22;26079;45.958;12.492;2023-03-19T07:17:46;8.20;92.10
40374;DHT22;26079;45.958;12.492;2023-03-19T07:20:12;8.40;92.00
40374;DHT22;26079;45.958;12.492;2023-03-19T07:22:38;8.50;91.80
40374;DHT22;26079;45.958;12.492;2023-03-19T07:25:05;8.70;90.00
40374;DHT22;26079;45.958;12.492;2023-03-19T07:27:31;8.80;90.30
40374;DHT22;26079;45.958;12.492;2023-03-19T07:29:56;9.00;90.20
40374;DHT22;26079;45.958;12.492;2023-03-19T07:32:22;9.20;89.80
40374;DHT22;26079;45.958;12.492;2023-03-19T07:34:48;9.30;88.80
40374;DHT22;26079;45.958;12.492;2023-03-19T07:37:15;9.50;88.20
40374;DHT22;26079;45.958;12.492;2023-03-19T07:39:40;9.50;86.10
40374;DHT22;26079;45.958;12.492;2023-03-19T07:42:06;9.60;86.50
40374;DHT22;26079;45.958;12.492;2023-03-19T07:44:32;9.70;86.20
40374;DHT22;26079;45.958;12.492;2023-03-19T07:46:58;9.80;84.60
40374;DHT22;26079;45.958;12.492;2023-03-19T07:49:23;9.80;83.80
40374;DHT22;26079;45.958;12.492;2023-03-19T07:51:49;9.90;84.70
40374;DHT22;26079;45.958;12.492;2023-03-19T07:54:16;10.00;84.70
40374;DHT22;26079;45.958;12.492;2023-03-19T07:56:52;10.00;83.90
40374;DHT22;26079;45.958;12.492;2023-03-19T07:59:17;10.20;84.80
40374;DHT22;26079;45.958;12.492;2023-03-19T08:01:43;10.40;84.50
40374;DHT22;26079;45.958;12.492;2023-03-19T08:04:09;10.50;82.50
40374;DHT22;26079;45.958;12.492;2023-03-19T08:06:35;10.60;82.20
40374;DHT22;26079;45.958;12.492;2023-03-19T08:09:00;10.80;82.60
40374;DHT22;26079;45.958;12.492;2023-03-19T08:11:26;11.00;80.10
40374;DHT22;26079;45.958;12.492;2023-03-19T08:13:54;11.10;80.60
40374;DHT22;26079;45.958;12.492;2023-03-19T08:16:19;11.00;79.90
40374;DHT22;26079;45.958;12.492;2023-03-19T08:18:45;11.10;80.70
40374;DHT22;26079;45.958;12.492;2023-03-19T08:21:11;11.30;81.90
40374;DHT22;26079;45.958;12.492;2023-03-19T08:23:37;11.30;78.20
40374;DHT22;26079;45.958;12.492;2023-03-19T08:26:02;11.00;77.50
40374;DHT22;26079;45.958;12.492;2023-03-19T08:28:28;10.90;78.60
40374;DHT22;26079;45.958;12.492;2023-03-19T08:30:54;11.20;79.30
40374;DHT22;26079;45.958;12.492;2023-03-19T08:33:20;11.40;78.40
40374;DHT22;26079;45.958;12.492;2023-03-19T08:35:46;11.50;77.60
40374;DHT22;26079;45.958;12.492;2023-03-19T08:38:12;11.60;77.90
40374;DHT22;26079;45.958;12.492;2023-03-19T08:40:38;11.60;76.70
40374;DHT22;26079;45.958;12.492;2023-03-19T08:43:12;11.80;77.60
40374;DHT22;26079;45.958;12.492;2023-03-19T08:45:40;11.80;76.80
40374;DHT22;26079;45.958;12.492;2023-03-19T08:48:16;11.90;76.30
40374;DHT22;26079;45.958;12.492;2023-03-19T08:50:50;12.00;74.80
40374;DHT22;26079;45.958;12.492;2023-03-19T08:53:21;12.00;76.20
40374;DHT22;26079;45.958;12.492;2023-03-19T08:56:01;12.10;75.50
40374;DHT22;26079;45.958;12.492;2023-03-19T08:58:29;12.10;74.70
40374;DHT22;26079;45.958;12.492;2023-03-19T09:01:09;12.10;74.00
40374;DHT22;26079;45.958;12.492;2023-03-19T09:03:43;12.10;73.70
40374;DHT22;26079;45.958;12.492;2023-03-19T09:06:12;12.10;75.40
40374;DHT22;26079;45.958;12.492;2023-03-19T09:08:41;12.30;74.40
40374;DHT22;26079;45.958;12.492;2023-03-19T09:11:09;12.50;74.00
40374;DHT22;26079;45.958;12.492;2023-03-19T09:13:35;12.60;73.30
40374;DHT22;26079;45.958;12.492;2023-03-19T09:16:02;12.70;73.10
40374;DHT22;26079;45.958;12.492;2023-03-19T09:18:35;12.60;71.10
40374;DHT22;26079;45.958;12.492;2023-03-19T09:21:02;12.60;72.20
40374;DHT22;26079;45.958;12.492;2023-03-19T09:23:31;12.70;72.00
40374;DHT22;26079;45.958;12.492;2023-03-19T09:26:00;12.80;71.50
40374;DHT22;26079;45.958;12.492;2023-03-19T09:28:33;12.70;71.50
40374;DHT22;26079;45.958;12.492;2023-03-19T09:31:00;12.80;71.10
40374;DHT22;26079;45.958;12.492;2023-03-19T09:33:32;12.90;71.40
40374;DHT22;26079;45.958;12.492;2023-03-19T09:36:00;13.20;70.90
40374;DHT22;26079;45.958;12.492;2023-03-19T09:38:27;13.20;71.50
40374;DHT22;26079;45.958;12.492;2023-03-19T09:41:06;13.30;72.50
40374;DHT22;26079;45.958;12.492;2023-03-19T09:44:04;13.60;72.30
40374;DHT22;26079;45.958;12.492;2023-03-19T09:49:24;14.20;71.60
40374;DHT22;26079;45.958;12.492;2023-03-19T09:52:08;14.20;66.80
40374;DHT22;26079;45.958;12.492;2023-03-19T09:54:48;14.20;69.60
40374;DHT22;26079;45.958;12.492;2023-03-19T09:57:17;14.20;68.50
40374;DHT22;26079;45.958;12.492;2023-03-19T09:59:43;14.20;67.80
40374;DHT22;26079;45.958;12.492;2023-03-19T10:02:41;14.30;70.20
40374;DHT22;26079;45.958;12.492;2023-03-19T10:05:38;14.50;68.10
40374;DHT22;26079;45.958;12.492;2023-03-19T10:10:54;14.70;69.30
40374;DHT22;26079;45.958;12.492;2023-03-19T10:13:33;14.70;67.60
40374;DHT22;26079;45.958;12.492;2023-03-19T10:16:06;14.80;64.70
40374;DHT22;26079;45.958;12.492;2023-03-19T10:18:38;14.90;64.90
40374;DHT22;26079;45.958;12.492;2023-03-19T10:21:39;14.80;62.20
40374;DHT22;26079;45.958;12.492;2023-03-19T10:24:17;14.70;61.30
40374;DHT22;26079;45.958;12.492;2023-03-19T10:26:46;14.70;63.60
40374;DHT22;26079;45.958;12.492;2023-03-19T10:29:21;14.80;64.50
40374;DHT22;26079;45.958;12.492;2023-03-19T10:37:00;14.60;62.50
40374;DHT22;26079;45.958;12.492;2023-03-19T10:39:27;14.50;62.30
40374;DHT22;26079;45.958;12.492;2023-03-19T10:44:55;14.60;58.90
40374;DHT22;26079;45.958;12.492;2023-03-19T10:47:25;14.50;59.40
40374;DHT22;26079;45.958;12.492;2023-03-19T10:49:51;14.60;58.20
40374;DHT22;26079;45.958;12.492;2023-03-19T10:52:29;14.50;59.50
40374;DHT22;26079;45.958;12.492;2023-03-19T10:55:17;14.70;63.70
40374;DHT22;26079;45.958;12.492;2023-03-19T10:57:45;14.90;62.80
40374;DHT22;26079;45.958;12.492;2023-03-19T11:00:23;14.80;61.40
40374;DHT22;26079;45.958;12.492;2023-03-19T11:02:54;14.80;63.70
40374;DHT22;26079;45.958;12.492;2023-03-19T11:08:21;15.10;61.30
40374;DHT22;26079;45.958;12.492;2023-03-19T11:10:48;15.20;62.10
40374;DHT22;26079;45.958;12.492;2023-03-19T11:13:25;15.20;59.70
40374;DHT22;26079;45.958;12.492;2023-03-19T11:15:52;15.30;59.40
40374;DHT22;26079;45.958;12.492;2023-03-19T11:18:22;15.30;59.00
40374;DHT22;26079;45.958;12.492;2023-03-19T11:21:00;15.30;58.20
40374;DHT22;26079;45.958;12.492;2023-03-19T11:23:31;15.40;60.00
40374;DHT22;26079;45.958;12.492;2023-03-19T11:26:02;15.50;58.20
40374;DHT22;26079;45.958;12.492;2023-03-19T11:28:30;15.40;58.60
40374;DHT22;26079;45.958;12.492;2023-03-19T11:46:34;14.90;62.30
40374;DHT22;26079;45.958;12.492;2023-03-19T11:49:14;14.80;61.20
40374;DHT22;26079;45.958;12.492;2023-03-19T12:04:31;14.70;63.80
40374;DHT22;26079;45.958;12.492;2023-03-19T12:07:07;14.80;63.60
40374;DHT22;26079;45.958;12.492;2023-03-19T12:24:02;14.80;62.10
40374;DHT22;26079;45.958;12.492;2023-03-19T12:29:15;14.90;63.90
40374;DHT22;26079;45.958;12.492;2023-03-19T12:34:19;14.90;62.50
40374;DHT22;26079;45.958;12.492;2023-03-19T12:40:04;15.00;62.10
40374;DHT22;26079;45.958;12.492;2023-03-19T12:42:36;14.90;63.00
40374;DHT22;26079;45.958;12.492;2023-03-19T12:45:07;14.90;64.30
40374;DHT22;26079;45.958;12.492;2023-03-19T12:47:39;15.10;63.90
40374;DHT22;26079;45.958;12.492;2023-03-19T12:50:10;15.10;62.30
40374;DHT22;26079;45.958;12.492;2023-03-19T12:52:39;15.20;62.40
40374;DHT22;26079;45.958;12.492;2023-03-19T12:55:13;15.30;63.60
40374;DHT22;26079;45.958;12.492;2023-03-19T12:57:51;15.40;62.30
40374;DHT22;26079;45.958;12.492;2023-03-19T13:00:34;15.40;61.00
40374;DHT22;26079;45.958;12.492;2023-03-19T13:03:06;15.40;62.30
40374;DHT22;26079;45.958;12.492;2023-03-19T13:14:48;15.20;61.10
40374;DHT22;26079;45.958;12.492;2023-03-19T13:19:48;15.20;62.30
40374;DHT22;26079;45.958;12.492;2023-03-19T13:24:48;15.20;62.00
40374;DHT22;26079;45.958;12.492;2023-03-19T13:27:22;15.10;61.80
40374;DHT22;26079;45.958;12.492;2023-03-19T13:32:43;15.10;63.20
40374;DHT22;26079;45.958;12.492;2023-03-19T13:38:43;15.40;62.50
40374;DHT22;26079;45.958;12.492;2023-03-19T13:44:00;15.10;60.50
40374;DHT22;26079;45.958;12.492;2023-03-19T13:46:43;15.00;60.50
40374;DHT22;26079;45.958;12.492;2023-03-19T13:52:33;15.10;61.50
40374;DHT22;26079;45.958;12.492;2023-03-19T13:54:52;15.10;60.60
40374;DHT22;26079;45.958;12.492;2023-03-19T13:57:20;15.20;61.80
40374;DHT22;26079;45.958;12.492;2023-03-19T13:59:56;15.30;61.20
40374;DHT22;26079;45.958;12.492;2023-03-19T14:02:46;15.40;62.50
40374;DHT22;26079;45.958;12.492;2023-03-19T14:07:40;15.30;60.90
40374;DHT22;26079;45.958;12.492;2023-03-19T14:10:25;15.20;63.50
40374;DHT22;26079;45.958;12.492;2023-03-19T14:13:07;15.10;59.40
40374;DHT22;26079;45.958;12.492;2023-03-19T14:15:34;15.20;61.30
40374;DHT22;26079;45.958;12.492;2023-03-19T14:18:03;15.20;61.90
40374;DHT22;26079;45.958;12.492;2023-03-19T14:20:43;15.20;60.30
40374;DHT22;26079;45.958;12.492;2023-03-19T14:23:23;15.20;61.80
40374;DHT22;26079;45.958;12.492;2023-03-19T14:26:04;15.20;60.80
40374;DHT22;26079;45.958;12.492;2023-03-19T14:36:44;14.80;60.80
40374;DHT22;26079;45.958;12.492;2023-03-19T14:39:21;14.80;61.30
40374;DHT22;26079;45.958;12.492;2023-03-19T14:41:50;14.90;61.80
40374;DHT22;26079;45.958;12.492;2023-03-19T14:49:48;14.80;62.20
40374;DHT22;26079;45.958;12.492;2023-03-19T14:52:45;14.80;62.10
40374;DHT22;26079;45.958;12.492;2023-03-19T14:55:15;14.80;61.20
40374;DHT22;26079;45.958;12.492;2023-03-19T14:57:42;14.80;61.30
40374;DHT22;26079;45.958;12.492;2023-03-19T15:00:18;14.80;60.30
40374;DHT22;26079;45.958;12.492;2023-03-19T15:02:51;14.90;60.70
40374;DHT22;26079;45.958;12.492;2023-03-19T15:05:27;15.00;61.00
40374;DHT22;26079;45.958;12.492;2023-03-19T15:07:56;15.10;60.80
40374;DHT22;26079;45.958;12.492;2023-03-19T15:10:28;15.10;61.50
40374;DHT22;26079;45.958;12.492;2023-03-19T15:18:36;15.10;60.30
40374;DHT22;26079;45.958;12.492;2023-03-19T15:21:02;15.00;60.00
40374;DHT22;26079;45.958;12.492;2023-03-19T15:23:29;15.00;61.20
40374;DHT22;26079;45.958;12.492;2023-03-19T15:25:57;15.00;62.40
40374;DHT22;26079;45.958;12.492;2023-03-19T15:28:42;15.00;60.80
40374;DHT22;26079;45.958;12.492;2023-03-19T15:31:08;14.90;61.10
40374;DHT22;26079;45.958;12.492;2023-03-19T15:33:36;14.90;61.10
40374;DHT22;26079;45.958;12.492;2023-03-19T15:36:18;14.90;63.10
40374;DHT22;26079;45.958;12.492;2023-03-19T15:41:25;14.80;62.20
40374;DHT22;26079;45.958;12.492;2023-03-19T15:43:53;14.80;63.30
40374;DHT22;26079;45.958;12.492;2023-03-19T15:46:24;14.80;64.60
40374;DHT22;26079;45.958;12.492;2023-03-19T15:49:01;14.70;65.00
40374;DHT22;26079;45.958;12.492;2023-03-19T15:51:30;14.70;65.30
40374;DHT22;26079;45.958;12.492;2023-03-19T15:53:57;14.70;64.90
40374;DHT22;26079;45.958;12.492;2023-03-19T15:56:24;14.70;66.10
40374;DHT22;26079;45.958;12.492;2023-03-19T15:58:51;14.70;65.30
40374;DHT22;26079;45.958;12.492;2023-03-19T16:01:19;14.60;65.90
40374;DHT22;26079;45.958;12.492;2023-03-19T16:06:27;14.70;66.40
40374;DHT22;26079;45.958;12.492;2023-03-19T16:08:56;14.60;66.20
40374;DHT22;26079;45.958;12.492;2023-03-19T16:11:36;14.60;66.00
40374;DHT22;26079;45.958;12.492;2023-03-19T16:16:35;14.60;66.30
40374;DHT22;26079;45.958;12.492;2023-03-19T16:19:35;14.60;65.70
40374;DHT22;26079;45.958;12.492;2023-03-19T16:22:22;14.50;67.80
40374;DHT22;26079;45.958;12.492;2023-03-19T16:24:49;14.50;66.40
40374;DHT22;26079;45.958;12.492;2023-03-19T16:27:18;14.40;66.00
40374;DHT22;26079;45.958;12.492;2023-03-19T16:30:02;14.30;67.00
40374;DHT22;26079;45.958;12.492;2023-03-19T16:32:31;14.30;67.90
40374;DHT22;26079;45.958;12.492;2023-03-19T16:35:03;14.20;69.00
40374;DHT22;26079;45.958;12.492;2023-03-19T16:43:00;13.80;69.20
40374;DHT22;26079;45.958;12.492;2023-03-19T16:45:33;13.80;69.00
40374;DHT22;26079;45.958;12.492;2023-03-19T16:48:02;13.80;69.40
40374;DHT22;26079;45.958;12.492;2023-03-19T16:50:38;13.70;69.20
40374;DHT22;26079;45.958;12.492;2023-03-19T16:53:31;13.70;70.60
40374;DHT22;26079;45.958;12.492;2023-03-19T16:55:58;13.60;71.10
40374;DHT22;26079;45.958;12.492;2023-03-19T16:58:32;13.50;70.70
40374;DHT22;26079;45.958;12.492;2023-03-19T17:01:01;13.40;72.10
40374;DHT22;26079;45.958;12.492;2023-03-19T17:23:30;12.50;75.00
40374;DHT22;26079;45.958;12.492;2023-03-19T17:26:00;12.40;75.50
40374;DHT22;26079;45.958;12.492;2023-03-19T17:28:35;12.30;76.20
40374;DHT22;26079;45.958;12.492;2023-03-19T17:31:19;12.20;78.70
40374;DHT22;26079;45.958;12.492;2023-03-19T17:33:48;12.10;77.30
40374;DHT22;26079;45.958;12.492;2023-03-19T17:36:14;12.00;78.20
40374;DHT22;26079;45.958;12.492;2023-03-19T17:38:40;11.90;78.40
40374;DHT22;26079;45.958;12.492;2023-03-19T17:41:32;11.70;78.50
40374;DHT22;26079;45.958;12.492;2023-03-19T17:44:01;11.60;78.70
40374;DHT22;26079;45.958;12.492;2023-03-19T17:46:28;11.50;79.00
40374;DHT22;26079;45.958;12.492;2023-03-19T17:48:54;11.50;80.00
40374;DHT22;26079;45.958;12.492;2023-03-19T19:59:24;9.80;87.90
40374;DHT22;26079;45.958;12.492;2023-03-19T20:01:50;9.80;88.30
40374;DHT22;26079;45.958;12.492;2023-03-19T20:04:16;9.70;88.30
40374;DHT22;26079;45.958;12.492;2023-03-19T20:06:41;9.70;88.30
40374;DHT22;26079;45.958;12.492;2023-03-19T20:09:07;9.70;89.40
40374;DHT22;26079;45.958;12.492;2023-03-19T20:11:33;9.60;89.80
40374;DHT22;26079;45.958;12.492;2023-03-19T20:13:58;9.60;90.30
40374;DHT22;26079;45.958;12.492;2023-03-19T20:16:25;9.60;90.50
40374;DHT22;26079;45.958;12.492;2023-03-19T20:18:51;9.50;90.80
40374;DHT22;26079;45.958;12.492;2023-03-19T20:21:19;9.50;90.80
40374;DHT22;26079;45.958;12.492;2023-03-19T20:23:45;9.40;90.50